Time;durP1;ratioP1;P1;durP2;ratioP2;P2;SDS_P1;SDS_P2;PMS_P1;PMS_P2;Temp;Humidity;BMP_temperature;BMP_pressure;BME280_temperature;BME280_humidity;BME280_pressure;Samples;Min_cycle;Max_cycle;Signal;HPM_P1;HPM_P2
2021/11/12 00:13:27;;;;;;;42.17;25.27;;;3.60;99.90;;;;;;5036910;28;20182;-94
2021/11/12 00:15:57;;;;;;;41.40;25.88;;;3.60;99.90;;;;;;5035800;28;20627;-94
2021/11/12 00:18:26;;;;;;;45.65;25.63;;;3.60;99.90;;;;;;5017696;28;20717;-93
2021/11/12 00:20:56;;;;;;;39.13;25.23;;;3.60;99.90;;;;;;5036996;28;20229;-94
2021/11/12 00:23:23;;;;;;;40.13;23.88;;;3.60;99.90;;;;;;5018088;28;20233;-93
2021/11/12 00:25:50;;;;;;;46.67;26.15;;;3.50;99.90;;;;;;5018108;28;20581;-93
2021/11/12 00:28:20;;;;;;;36.97;24.67;;;3.50;99.90;;;;;;5017645;28;20194;-93
2021/11/12 00:33:30;;;;;;;40.28;25.25;;;3.50;99.90;;;;;;5040181;28;20198;-93
2021/11/12 00:38:44;;;;;;;43.15;27.70;;;3.50;99.90;;;;;;5048994;28;20200;-93
2021/11/12 00:41:22;;;;;;;39.35;26.52;;;3.50;99.90;;;;;;5027579;28;20225;-93
2021/11/12 00:43:51;;;;;;;40.40;24.48;;;3.60;99.90;;;;;;5025137;28;20190;-94
2021/11/12 00:48:53;;;;;;;40.25;26.10;;;3.60;99.90;;;;;;5035318;28;20170;-93
2021/11/12 00:51:32;;;;;;;51.47;29.63;;;3.60;99.90;;;;;;5018254;28;20248;-93
2021/11/12 00:56:26;;;;;;;53.00;30.30;;;3.50;99.90;;;;;;5035345;28;20198;-93
2021/11/12 00:58:54;;;;;;;43.58;28.77;;;3.50;99.90;;;;;;5017772;28;20186;-93
2021/11/12 01:01:21;;;;;;;48.10;29.48;;;3.50;99.90;;;;;;5017654;28;20225;-93
2021/11/12 01:03:51;;;;;;;40.42;27.85;;;3.50;99.90;;;;;;5017874;28;20205;-94
2021/11/12 01:06:18;;;;;;;48.67;28.20;;;3.50;99.90;;;;;;5025198;28;20237;-93
2021/11/12 01:08:44;;;;;;;35.20;23.65;;;3.50;99.90;;;;;;5037044;28;20182;-94
2021/11/12 01:11:12;;;;;;;42.38;23.92;;;3.50;99.90;;;;;;5035145;28;20181;-94
2021/11/12 01:13:38;;;;;;;42.50;24.17;;;3.50;99.90;;;;;;5017259;28;20193;-94
2021/11/12 01:16:05;;;;;;;42.92;26.08;;;3.50;99.90;;;;;;5034468;28;20174;-93
2021/11/12 01:18:35;;;;;;;40.90;25.10;;;3.50;99.90;;;;;;5036943;28;20174;-94
2021/11/12 01:21:02;;;;;;;35.40;23.50;;;3.50;99.90;;;;;;5016974;28;20276;-93
2021/11/12 01:23:28;;;;;;;38.40;24.92;;;3.50;99.90;;;;;;5034931;28;20170;-93
2021/11/12 01:25:54;;;;;;;44.43;24.60;;;3.50;99.90;;;;;;5017009;28;20190;-95
2021/11/12 01:28:20;;;;;;;36.25;22.77;;;3.50;99.90;;;;;;5017362;28;20210;-93
2021/11/12 01:30:46;;;;;;;46.93;27.40;;;3.50;99.90;;;;;;5035003;28;20174;-93
2021/11/12 01:33:12;;;;;;;43.47;27.85;;;3.50;99.90;;;;;;5016913;28;20288;-93
2021/11/12 01:35:38;;;;;;;42.53;25.37;;;3.50;99.90;;;;;;5034660;28;20198;-94
2021/11/12 01:38:04;;;;;;;36.25;23.23;;;3.50;99.90;;;;;;5017261;28;20747;-93
2021/11/12 01:40:30;;;;;;;39.15;23.10;;;3.50;99.90;;;;;;5036238;28;20683;-94
2021/11/12 01:43:00;;;;;;;36.03;21.60;;;3.40;99.90;;;;;;5021523;28;20206;-95
2021/11/12 01:51:01;;;;;;;40.08;24.92;;;3.40;99.90;;;;;;5046647;28;20166;-94
2021/11/12 01:53:33;;;;;;;39.35;25.35;;;3.40;99.90;;;;;;5021312;28;20611;-94
2021/11/12 02:01:22;;;;;;;43.92;25.08;;;3.40;99.90;;;;;;5042292;28;20367;-94
2021/11/12 02:03:51;;;;;;;43.75;24.27;;;3.50;99.90;;;;;;5020560;28;20572;-94
2021/11/12 02:06:20;;;;;;;42.53;24.95;;;3.50;99.90;;;;;;5020707;28;20205;-96
2021/11/12 02:08:47;;;;;;;40.08;24.27;;;3.50;99.90;;;;;;5020734;28;20178;-94
2021/11/12 02:11:13;;;;;;;36.70;24.88;;;3.50;99.90;;;;;;5038674;28;20288;-92
2021/11/12 02:13:42;;;;;;;43.20;26.25;;;3.50;99.90;;;;;;5027609;28;20185;-94
2021/11/12 02:16:12;;;;;;;39.42;23.08;;;3.50;99.90;;;;;;5020630;28;20182;-94
2021/11/12 02:18:41;;;;;;;38.00;24.77;;;3.50;99.90;;;;;;5024567;28;20182;-94
2021/11/12 02:23:59;;;;;;;34.50;23.70;;;3.40;99.90;;;;;;5038229;28;20209;-94
2021/11/12 02:26:23;;;;;;;36.95;23.15;;;3.50;99.90;;;;;;5037226;28;20950;-95
2021/11/12 02:28:54;;;;;;;38.80;23.08;;;3.50;99.90;;;;;;5020537;28;20174;-94
2021/11/12 02:31:21;;;;;;;40.50;23.77;;;3.50;99.90;;;;;;5045289;28;20222;-93
2021/11/12 02:33:47;;;;;;;38.40;24.35;;;3.40;99.90;;;;;;5022401;28;20174;-94
2021/11/12 02:36:16;;;;;;;38.17;25.20;;;3.40;99.90;;;;;;5022906;28;20214;-93
2021/11/12 02:38:53;;;;;;;39.33;26.20;;;3.40;99.90;;;;;;5021021;28;20197;-95
2021/11/12 02:41:20;;;;;;;35.28;24.35;;;3.40;99.90;;;;;;5020229;28;20732;-95
2021/11/12 02:43:48;;;;;;;40.55;23.88;;;3.40;99.90;;;;;;5029108;28;20179;-95
2021/11/12 02:46:18;;;;;;;34.70;23.63;;;3.40;99.90;;;;;;5038768;28;20214;-95
2021/11/12 02:48:44;;;;;;;31.95;22.55;;;3.40;99.90;;;;;;5020128;28;20177;-95
2021/11/12 02:51:15;;;;;;;34.80;23.73;;;3.40;99.90;;;;;;5018977;28;20194;-94
2021/11/12 02:53:42;;;;;;;44.38;26.05;;;3.50;99.90;;;;;;5019143;28;20174;-94
2021/11/12 02:56:13;;;;;;;46.05;25.48;;;3.50;99.90;;;;;;5019767;28;20193;-94
2021/11/12 02:58:39;;;;;;;47.25;26.15;;;3.50;99.90;;;;;;5019566;28;20179;-94
2021/11/12 03:01:07;;;;;;;42.47;24.60;;;3.50;99.90;;;;;;5019267;28;20678;-94
2021/11/12 03:03:32;;;;;;;43.67;24.45;;;3.40;99.90;;;;;;5022452;28;20174;-94
2021/11/12 03:05:59;;;;;;;43.00;24.30;;;3.50;99.90;;;;;;5019673;28;20189;-95
2021/11/12 03:08:27;;;;;;;41.40;24.33;;;3.50;99.90;;;;;;5037362;28;20162;-95
2021/11/12 03:10:55;;;;;;;42.25;24.35;;;3.50;99.90;;;;;;5019653;28;20182;-95
2021/11/12 03:13:22;;;;;;;42.70;24.85;;;3.50;99.90;;;;;;5019499;28;20174;-94
2021/11/12 03:15:48;;;;;;;30.13;22.33;;;3.50;99.90;;;;;;5019215;28;20193;-95
2021/11/12 03:18:14;;;;;;;36.92;23.65;;;3.50;99.90;;;;;;5036773;28;20222;-95
2021/11/12 03:20:41;;;;;;;38.65;23.10;;;3.50;99.90;;;;;;5037218;28;20258;-94
2021/11/12 03:23:20;;;;;;;42.45;23.55;;;3.50;99.90;;;;;;5019355;28;20218;-94
2021/11/12 03:56:29;;;;;;;55.53;31.83;;;3.30;99.90;;;;;;5042357;28;20166;-94
2021/11/12 04:03:54;;;;;;;38.43;24.20;;;3.20;99.90;;;;;;5045901;28;20178;-94
2021/11/12 04:06:45;;;;;;;39.22;24.42;;;3.20;99.90;;;;;;5026124;28;20213;-95
2021/11/12 04:17:34;;;;;;;44.78;22.15;;;3.10;99.90;;;;;;5035788;28;20694;-95
2021/11/12 04:49:16;;;;;;;39.78;22.10;;;2.90;99.90;;;;;;5037970;28;20248;-95
2021/11/12 04:49:26;;;;;;;40.35;21.48;;;2.90;99.90;;;;;;5047739;28;20233;-95
2021/11/12 05:09:47;;;;;;;53.22;27.88;;;2.70;99.90;;;;;;5035343;28;20189;-95
2021/11/12 05:26:22;;;;;;;51.50;25.70;;;2.60;99.90;;;;;;5036765;28;20716;-95
2021/11/12 05:33:38;;;;;;;44.78;23.55;;;2.60;99.90;;;;;;5053714;28;20250;-94
2021/11/12 05:34:43;;;;;;;79.90;31.75;;;2.60;99.90;;;;;;5046974;28;20696;-95
2021/11/12 05:45:43;;;;;;;72.78;32.30;;;2.60;99.90;;;;;;5050244;28;20272;-94
2021/11/12 05:56:03;;;;;;;46.42;22.90;;;2.60;99.90;;;;;;5049497;28;20221;-95
2021/11/12 05:58:29;;;;;;;37.15;24.60;;;2.60;99.90;;;;;;5017310;28;20603;-94
2021/11/12 06:00:55;;;;;;;40.93;21.53;;;2.60;99.90;;;;;;5035151;28;20205;-96
2021/11/12 06:03:21;;;;;;;35.50;21.80;;;2.60;99.90;;;;;;5044469;28;20236;-94
2021/11/12 06:05:46;;;;;;;38.60;22.10;;;2.60;99.90;;;;;;5043725;28;20269;-95
2021/11/12 06:08:12;;;;;;;36.90;22.87;;;2.60;99.90;;;;;;5043938;28;20413;-94
2021/11/12 06:10:38;;;;;;;39.47;24.03;;;2.60;99.90;;;;;;5044890;28;20182;-94
2021/11/12 06:13:04;;;;;;;43.03;24.83;;;2.60;99.90;;;;;;5030167;28;20280;-95
2021/11/12 06:15:30;;;;;;;53.37;29.97;;;2.60;99.90;;;;;;5026632;28;20186;-94
2021/11/12 06:17:57;;;;;;;45.97;26.00;;;2.60;99.90;;;;;;5020251;28;20690;-94
2021/11/12 06:20:23;;;;;;;43.08;26.05;;;2.60;99.90;;;;;;5033445;28;20214;-94
2021/11/12 06:22:49;;;;;;;41.40;22.70;;;2.60;99.90;;;;;;5029315;28;20206;-95
2021/11/12 06:25:15;;;;;;;39.53;23.80;;;2.70;99.90;;;;;;5025747;28;20200;-94
2021/11/12 06:27:41;;;;;;;39.23;25.47;;;2.70;99.90;;;;;;5045195;28;20202;-94
2021/11/12 06:30:08;;;;;;;44.03;23.93;;;2.60;99.90;;;;;;5035611;28;20182;-94
2021/11/12 06:32:34;;;;;;;34.60;23.50;;;2.60;99.90;;;;;;5027476;28;20575;-95
2021/11/12 06:35:00;;;;;;;33.73;22.63;;;2.70;99.90;;;;;;5028753;28;20194;-95
2021/11/12 06:37:29;;;;;;;44.28;24.23;;;2.70;99.90;;;;;;5019982;28;20449;-95
2021/11/12 06:39:58;;;;;;;49.97;26.45;;;2.60;99.90;;;;;;5022719;28;20206;-94
2021/11/12 06:42:26;;;;;;;39.47;24.05;;;2.60;99.90;;;;;;5039657;28;20253;-95
2021/11/12 06:49:19;;;;;;;34.10;20.77;;;2.70;99.90;;;;;;5044727;28;20193;-95
2021/11/12 06:50:25;;;;;;;41.92;21.58;;;2.90;99.90;;;;;;5048746;28;20670;-95
2021/11/12 06:52:51;;;;;;;48.13;22.05;;;3.10;99.90;;;;;;5050037;28;20205;-95
2021/11/12 06:55:19;;;;;;;34.53;22.60;;;3.20;99.90;;;;;;5029557;28;20222;-94
2021/11/12 06:57:45;;;;;;;38.00;21.23;;;3.30;99.90;;;;;;5026870;28;20735;-95
2021/11/12 07:00:15;;;;;;;30.88;21.92;;;3.30;99.90;;;;;;5022931;28;20679;-94
2021/11/12 07:02:41;;;;;;;39.20;24.65;;;3.30;99.90;;;;;;5046038;28;20201;-95
2021/11/12 07:05:08;;;;;;;37.50;22.58;;;3.30;99.90;;;;;;5029826;28;20178;-95
2021/11/12 07:07:35;;;;;;;42.88;25.50;;;3.20;99.90;;;;;;5031913;28;20206;-93
2021/11/12 07:10:02;;;;;;;33.95;23.15;;;3.20;99.90;;;;;;5036216;28;20222;-94
2021/11/12 07:12:28;;;;;;;32.67;22.17;;;3.20;99.90;;;;;;5032694;28;20267;-94
2021/11/12 07:14:54;;;;;;;49.03;23.80;;;3.20;99.90;;;;;;5033395;28;20186;-93
2021/11/12 07:17:20;;;;;;;49.38;23.77;;;3.20;99.90;;;;;;5022772;28;20238;-95
2021/11/12 07:19:46;;;;;;;46.00;24.27;;;3.20;99.90;;;;;;5001860;28;20190;-94
2021/11/12 07:22:12;;;;;;;37.40;22.45;;;3.20;99.90;;;;;;5015979;28;20451;-95
2021/11/12 07:24:39;;;;;;;40.97;25.27;;;3.20;99.90;;;;;;5006647;28;20609;-94
2021/11/12 07:27:07;;;;;;;42.15;25.50;;;3.20;99.90;;;;;;5011857;28;20238;-94
2021/11/12 07:29:35;;;;;;;34.72;23.98;;;3.20;99.90;;;;;;5021831;28;20648;-96
2021/11/12 07:32:01;;;;;;;35.58;23.77;;;3.30;99.90;;;;;;5015668;28;20219;-94
2021/11/12 07:34:28;;;;;;;41.92;26.02;;;3.30;99.90;;;;;;5013626;28;20266;-94
2021/11/12 07:37:02;;;;;;;38.28;27.20;;;3.40;99.90;;;;;;5013195;28;20206;-94
2021/11/12 07:42:10;;;;;;;50.33;25.75;;;3.40;99.90;;;;;;5028867;28;20313;-95
2021/11/12 07:47:24;;;;;;;39.70;24.90;;;3.50;99.90;;;;;;5024355;28;20254;-95
2021/11/12 07:49:54;;;;;;;41.85;25.08;;;3.50;99.90;;;;;;5032526;28;20662;-94
2021/11/12 07:52:23;;;;;;;56.65;28.00;;;3.50;99.90;;;;;;5015532;28;20226;-94
2021/11/12 07:54:49;;;;;;;40.97;24.70;;;3.50;99.90;;;;;;5010018;28;20206;-95
2021/11/12 07:57:16;;;;;;;40.42;26.92;;;3.60;99.90;;;;;;5021377;28;20206;-95
2021/11/12 07:59:42;;;;;;;42.38;25.00;;;3.60;99.90;;;;;;5011989;28;20269;-93
2021/11/12 08:02:08;;;;;;;48.33;24.60;;;3.60;99.90;;;;;;5003269;28;20303;-94
2021/11/12 08:04:36;;;;;;;52.22;25.20;;;3.70;99.90;;;;;;4989136;28;20492;-95
2021/11/12 08:07:01;;;;;;;46.55;24.85;;;3.70;99.90;;;;;;5006410;28;20610;-93
2021/11/12 08:09:35;;;;;;;40.60;24.93;;;3.80;99.90;;;;;;5030807;28;20245;-94
2021/11/12 08:12:12;;;;;;;52.22;23.95;;;3.80;99.90;;;;;;5015017;28;20269;-96
2021/11/12 08:14:50;;;;;;;42.03;25.52;;;3.90;99.90;;;;;;5014163;28;20193;-94
2021/11/12 08:17:43;;;;;;;46.88;27.63;;;4.00;99.90;;;;;;5019917;28;20241;-94
2021/11/12 08:20:36;;;;;;;38.10;24.50;;;4.10;99.90;;;;;;5027135;28;20213;-94
2021/11/12 08:23:19;;;;;;;39.00;24.30;;;4.20;99.90;;;;;;5028619;28;20214;-94
2021/11/12 08:25:51;;;;;;;48.50;27.45;;;4.20;99.90;;;;;;5028153;28;20709;-95
2021/11/12 08:28:44;;;;;;;55.35;30.17;;;4.30;99.90;;;;;;5029107;28;20241;-95
2021/11/12 08:33:57;;;;;;;58.95;33.60;;;4.30;99.90;;;;;;5025846;28;20177;-95
2021/11/12 08:36:35;;;;;;;47.58;29.60;;;4.40;99.90;;;;;;5029466;28;20217;-95
2021/11/12 08:41:43;;;;;;;34.03;23.15;;;4.50;99.90;;;;;;5027493;28;20687;-95
2021/11/12 08:44:18;;;;;;;42.38;25.00;;;4.60;99.90;;;;;;5027970;28;20225;-95
2021/11/12 08:46:56;;;;;;;35.80;23.35;;;4.70;99.90;;;;;;5028040;28;20209;-95
2021/11/12 08:49:32;;;;;;;43.20;24.08;;;4.70;99.90;;;;;;5027529;28;20182;-94
2021/11/12 08:52:00;;;;;;;29.35;22.30;;;4.70;99.90;;;;;;5027021;28;20244;-93
2021/11/12 08:54:30;;;;;;;44.60;26.67;;;4.60;99.90;;;;;;5028030;28;20182;-95
2021/11/12 08:56:56;;;;;;;36.15;23.73;;;4.60;99.90;;;;;;5026084;28;20252;-94
2021/11/12 08:59:21;;;;;;;36.27;25.20;;;4.60;99.90;;;;;;5029424;28;20663;-94
2021/11/12 09:01:48;;;;;;;39.47;22.30;;;4.50;99.90;;;;;;5024369;28;20454;-94
2021/11/12 09:04:14;;;;;;;40.55;25.90;;;4.50;99.90;;;;;;5022807;28;20495;-94
2021/11/12 09:06:41;;;;;;;42.05;26.98;;;4.50;99.90;;;;;;5029900;28;20494;-95
2021/11/12 09:09:10;;;;;;;33.65;24.23;;;4.50;99.90;;;;;;5024436;28;20194;-93
2021/11/12 09:11:38;;;;;;;31.45;22.63;;;4.50;99.90;;;;;;5020504;28;20321;-96
2021/11/12 09:14:06;;;;;;;34.28;22.92;;;4.50;99.90;;;;;;5023399;28;20754;-95
2021/11/12 09:16:34;;;;;;;36.78;22.85;;;4.50;99.90;;;;;;5016578;28;20296;-95
2021/11/12 09:19:01;;;;;;;39.63;25.42;;;4.60;99.90;;;;;;5010629;28;20190;-93
2021/11/12 09:21:27;;;;;;;43.10;27.52;;;4.70;99.90;;;;;;5008398;28;20591;-94
2021/11/12 09:23:57;;;;;;;40.70;25.00;;;4.80;99.90;;;;;;5008690;28;20182;-92
2021/11/12 09:26:24;;;;;;;40.63;25.75;;;4.80;99.90;;;;;;5023235;28;20217;-95
2021/11/12 09:28:51;;;;;;;47.78;31.83;;;4.90;99.90;;;;;;5028582;28;20178;-94
2021/11/12 09:31:18;;;;;;;40.53;25.92;;;4.90;99.90;;;;;;5024190;28;20217;-93
2021/11/12 09:33:44;;;;;;;45.33;28.25;;;5.00;99.90;;;;;;5029611;28;20186;-95
2021/11/12 09:36:11;;;;;;;43.20;31.27;;;5.00;99.90;;;;;;5010200;28;20194;-94
2021/11/12 09:38:39;;;;;;;41.42;27.02;;;5.00;99.90;;;;;;5017011;28;20178;-93
2021/11/12 09:41:06;;;;;;;41.40;25.85;;;5.10;99.90;;;;;;5016139;28;20309;-93
2021/11/12 09:43:33;;;;;;;51.85;29.65;;;5.10;99.90;;;;;;5025652;28;20183;-95
2021/11/12 09:45:59;;;;;;;43.90;27.48;;;5.20;99.90;;;;;;5011422;28;20191;-95
2021/11/12 09:48:24;;;;;;;34.40;23.80;;;5.30;99.90;;;;;;5015074;28;20182;-93
2021/11/12 09:50:51;;;;;;;37.57;23.60;;;5.40;99.90;;;;;;5012890;28;20388;-93
2021/11/12 09:53:18;;;;;;;41.08;25.17;;;5.50;99.90;;;;;;5008522;28;20643;-94
2021/11/12 09:55:47;;;;;;;35.53;24.25;;;5.60;99.90;;;;;;5027061;28;20187;-93
2021/11/12 09:58:14;;;;;;;59.58;35.53;;;5.70;99.90;;;;;;5024730;28;20210;-93
2021/11/12 10:00:41;;;;;;;59.75;35.72;;;5.80;99.90;;;;;;5025644;28;20246;-93
2021/11/12 10:03:09;;;;;;;63.65;40.30;;;5.90;99.90;;;;;;5006931;28;20211;-93
2021/11/12 10:05:39;;;;;;;64.75;40.28;;;6.00;99.90;;;;;;5032238;28;20170;-93
2021/11/12 10:08:27;;;;;;;74.28;45.28;;;6.10;99.90;;;;;;5010312;28;20302;-95
2021/11/12 10:11:02;;;;;;;93.53;51.65;;;6.10;99.90;;;;;;4994888;28;20186;-93
2021/11/12 10:13:33;;;;;;;86.80;49.30;;;6.10;99.90;;;;;;5029365;28;20461;-93
2021/11/12 10:16:13;;;;;;;86.95;51.90;;;6.10;99.90;;;;;;5012567;28;20190;-92
2021/11/12 10:18:58;;;;;;;84.20;51.33;;;6.10;99.90;;;;;;5010850;28;20197;-93
2021/11/12 10:21:33;;;;;;;90.03;52.25;;;6.10;99.90;;;;;;5026759;28;20219;-94
2021/11/12 10:24:01;;;;;;;80.60;48.25;;;6.10;99.90;;;;;;5011303;28;20185;-94
2021/11/12 10:26:30;;;;;;;72.55;43.67;;;6.10;99.90;;;;;;5033800;28;20203;-95
2021/11/12 10:29:11;;;;;;;60.72;40.15;;;6.10;99.90;;;;;;5007845;28;20246;-94
2021/11/12 10:31:41;;;;;;;70.07;43.15;;;6.10;99.90;;;;;;5012856;28;20301;-95
2021/11/12 10:34:12;;;;;;;61.08;38.42;;;6.10;99.90;;;;;;5030982;28;20273;-94
2021/11/12 10:37:10;;;;;;;61.85;39.25;;;6.20;99.90;;;;;;5006723;28;20203;-93
2021/11/12 10:39:46;;;;;;;63.45;38.70;;;6.30;99.90;;;;;;5023061;28;20179;-94
2021/11/12 10:42:20;;;;;;;57.95;38.55;;;6.40;99.90;;;;;;5007802;28;20269;-92
2021/11/12 10:44:50;;;;;;;53.15;36.72;;;6.60;99.90;;;;;;5009710;28;20186;-92
2021/11/12 10:47:18;;;;;;;51.78;34.08;;;6.80;99.90;;;;;;5040339;28;20219;-94
2021/11/12 10:49:51;;;;;;;51.13;34.78;;;7.00;99.90;;;;;;5013846;28;20485;-93
2021/11/12 10:52:23;;;;;;;50.38;33.10;;;7.30;99.90;;;;;;5016588;28;20206;-94
2021/11/12 10:55:00;;;;;;;48.03;33.28;;;7.60;99.90;;;;;;5012656;28;20187;-91
2021/11/12 10:57:29;;;;;;;46.28;31.00;;;7.80;99.90;;;;;;5015185;28;20210;-92
2021/11/12 10:59:55;;;;;;;44.05;29.90;;;8.00;99.90;;;;;;5032357;28;20549;-93
2021/11/12 11:02:28;;;;;;;50.50;32.80;;;8.10;99.90;;;;;;5007975;28;20300;-94
2021/11/12 11:04:57;;;;;;;51.90;33.08;;;8.30;99.90;;;;;;5014872;28;20185;-94
2021/11/12 11:07:24;;;;;;;48.40;33.05;;;8.40;99.90;;;;;;5011754;28;20225;-94
2021/11/12 11:09:56;;;;;;;43.70;29.63;;;8.50;99.90;;;;;;5023337;28;20179;-94
2021/11/12 11:12:39;;;;;;;41.17;30.23;;;8.70;99.90;;;;;;5015554;28;20203;-93
2021/11/12 11:15:16;;;;;;;44.05;28.52;;;8.80;99.90;;;;;;5027527;28;20191;-95
2021/11/12 11:17:45;;;;;;;45.10;31.48;;;9.00;99.90;;;;;;5023074;28;20238;-93
2021/11/12 11:20:16;;;;;;;40.92;29.10;;;9.20;99.90;;;;;;5043674;28;20216;-92
2021/11/12 11:22:54;;;;;;;39.95;29.15;;;9.30;99.90;;;;;;5052327;28;20285;-95
2021/11/12 11:25:21;;;;;;;40.08;29.20;;;9.40;99.90;;;;;;5030768;28;20178;-92
2021/11/12 11:27:48;;;;;;;40.28;28.88;;;9.50;99.90;;;;;;5020955;28;20207;-94
2021/11/12 11:30:14;;;;;;;43.38;30.90;;;9.50;99.90;;;;;;5025586;28;20178;-93
2021/11/12 11:32:42;;;;;;;43.13;29.80;;;9.60;99.90;;;;;;5039188;28;20210;-93
2021/11/12 11:35:09;;;;;;;37.05;27.05;;;9.70;99.90;;;;;;5048766;28;20189;-92
2021/11/12 11:37:38;;;;;;;40.80;30.60;;;9.80;99.90;;;;;;5052035;28;20209;-94
2021/11/12 11:40:05;;;;;;;39.00;28.30;;;9.90;99.90;;;;;;5034292;28;20213;-92
2021/11/12 11:42:31;;;;;;;35.10;27.33;;;10.00;99.90;;;;;;5024629;28;20372;-92
2021/11/12 11:44:58;;;;;;;37.08;27.63;;;10.00;99.90;;;;;;5022475;28;20686;-93
2021/11/12 11:47:25;;;;;;;35.65;25.98;;;10.10;99.90;;;;;;5052506;28;20689;-94
2021/11/12 11:49:54;;;;;;;34.88;26.80;;;10.10;99.90;;;;;;5023591;28;20269;-94
2021/11/12 11:52:28;;;;;;;40.60;28.95;;;10.10;99.90;;;;;;5050357;28;20233;-92
2021/11/12 11:54:55;;;;;;;41.05;28.45;;;10.10;99.90;;;;;;5030635;28;20197;-94
2021/11/12 11:57:24;;;;;;;41.72;29.13;;;10.10;99.90;;;;;;5032373;28;20285;-92
2021/11/12 12:00:22;;;;;;;38.53;28.05;;;10.10;99.90;;;;;;5034586;28;20206;-92
2021/11/12 12:03:08;;;;;;;36.33;27.48;;;10.10;99.90;;;;;;5028220;28;20202;-95
2021/11/12 12:06:04;;;;;;;34.45;26.25;;;10.20;99.90;;;;;;5030519;28;20186;-94
2021/11/12 12:08:30;;;;;;;38.97;28.70;;;10.30;99.90;;;;;;5048378;28;20719;-92
2021/11/12 12:11:19;;;;;;;39.40;28.60;;;10.40;99.90;;;;;;5033441;28;20181;-92
2021/11/12 12:13:46;;;;;;;37.53;27.67;;;10.50;99.90;;;;;;5051791;28;20247;-94
2021/11/12 12:16:20;;;;;;;41.47;30.13;;;10.50;99.90;;;;;;5031372;28;20251;-94
2021/11/12 12:18:47;;;;;;;38.83;29.70;;;10.60;99.90;;;;;;5048891;28;20177;-93
2021/11/12 13:22:59;;;;;;;49.40;32.00;;;11.50;99.90;;;;;;5050487;28;20221;-92
2021/11/12 13:25:36;;;;;;;45.47;30.63;;;11.50;99.90;;;;;;5055702;28;20197;-92
2021/11/12 13:28:24;;;;;;;56.78;36.22;;;11.60;99.90;;;;;;5047420;28;20205;-94
2021/11/12 13:30:54;;;;;;;61.33;39.30;;;11.60;99.90;;;;;;5041057;28;20178;-93
2021/11/12 13:33:24;;;;;;;58.30;37.50;;;11.60;99.90;;;;;;5045816;28;20186;-92
2021/11/12 13:35:50;;;;;;;45.40;33.15;;;11.60;99.90;;;;;;5035618;28;20178;-93
2021/11/12 13:38:15;;;;;;;45.43;32.37;;;11.60;99.90;;;;;;5053425;28;20978;-94
2021/11/12 13:40:42;;;;;;;46.33;33.50;;;11.60;99.90;;;;;;5030340;28;20230;-92
2021/11/12 13:43:08;;;;;;;49.88;35.00;;;11.50;99.90;;;;;;5023388;28;20228;-92
2021/11/12 13:45:34;;;;;;;48.87;34.77;;;11.50;99.90;;;;;;5035362;28;20256;-92
2021/11/12 13:48:09;;;;;;;56.40;36.80;;;11.50;99.90;;;;;;5053122;28;20205;-92
2021/11/12 13:50:40;;;;;;;46.95;33.50;;;11.50;99.90;;;;;;5039053;28;20182;-93
2021/11/12 13:53:06;;;;;;;44.17;32.97;;;11.60;99.90;;;;;;5050440;28;20213;-92
2021/11/12 13:55:38;;;;;;;47.80;33.90;;;11.70;99.90;;;;;;5064572;28;20178;-94
2021/11/12 13:58:05;;;;;;;48.70;33.50;;;11.80;99.90;;;;;;5044107;28;20217;-94
2021/11/12 14:00:33;;;;;;;41.05;30.83;;;11.80;99.90;;;;;;5046879;28;20512;-92
2021/11/12 14:03:04;;;;;;;42.50;31.60;;;11.90;99.90;;;;;;5039643;28;20654;-94
2021/11/12 14:05:30;;;;;;;42.17;32.20;;;12.00;99.90;;;;;;5037539;28;20567;-94
2021/11/12 14:08:05;;;;;;;40.83;31.40;;;12.00;99.90;;;;;;5056105;28;20224;-91
2021/11/12 14:10:34;;;;;;;40.17;30.83;;;12.10;99.90;;;;;;5035181;28;20646;-94
2021/11/12 14:12:59;;;;;;;43.10;30.40;;;12.10;99.90;;;;;;5029091;28;20255;-91
2021/11/12 14:15:29;;;;;;;45.63;30.70;;;12.20;99.90;;;;;;5052287;28;20181;-94
2021/11/12 14:24:25;;;;;;;44.40;30.95;;;12.20;99.90;;;;;;5045333;28;20438;-93
2021/11/12 14:43:55;;;;;;;97.75;50.00;;;10.90;99.90;;;;;;5042095;28;20813;-95
2021/11/12 14:54:46;;;;;;;58.67;38.00;;;10.10;99.90;;;;;;5047835;28;20685;-93
2021/11/12 15:00:19;;;;;;;51.35;34.30;;;9.70;99.90;;;;;;4987556;28;20231;-94
2021/11/12 15:02:45;;;;;;;54.85;37.70;;;9.60;99.90;;;;;;5025928;28;20210;-94
2021/11/12 15:05:14;;;;;;;98.20;52.53;;;9.40;99.90;;;;;;5045193;28;20275;-93
2021/11/12 15:07:52;;;;;;;120.32;61.22;;;9.30;99.90;;;;;;5039743;28;20213;-92
2021/11/12 15:10:26;;;;;;;133.57;71.53;;;9.20;99.90;;;;;;5031352;28;20194;-94
2021/11/12 15:12:52;;;;;;;169.85;92.80;;;9.10;99.90;;;;;;5060236;28;20218;-92
2021/11/12 15:15:19;;;;;;;141.73;79.50;;;9.00;99.90;;;;;;5020489;28;20632;-91
2021/11/12 15:17:48;;;;;;;135.70;72.55;;;8.90;99.90;;;;;;5032220;28;20227;-94
2021/11/12 15:20:14;;;;;;;111.72;62.88;;;8.70;99.90;;;;;;5027488;28;20734;-94
2021/11/12 15:30:09;;;;;;;89.63;48.70;;;8.40;99.90;;;;;;5018877;28;20533;-92
2021/11/12 15:32:39;;;;;;;74.20;44.08;;;8.30;99.90;;;;;;5019775;28;20199;-94
2021/11/12 15:35:15;;;;;;;64.90;41.00;;;8.30;99.90;;;;;;5019868;28;20616;-93
2021/11/12 15:40:41;;;;;;;65.00;39.90;;;8.10;99.90;;;;;;5019606;28;20273;-96
2021/11/12 15:48:21;;;;;;;63.47;40.83;;;7.90;99.90;;;;;;5018075;28;20293;-95
2021/11/12 15:58:54;;;;;;;72.68;46.28;;;7.60;99.90;;;;;;5028114;28;20225;-96
2021/11/12 16:02:14;;;;;;;270.05;128.70;;;7.50;99.90;;;;;;5026951;28;20698;-96
2021/11/12 16:07:02;;;;;;;101.95;63.45;;;7.30;99.90;;;;;;5032639;28;20346;-96
2021/11/12 16:14:40;;;;;;;106.05;65.25;;;7.20;99.90;;;;;;5017983;28;20190;-96
2021/11/12 16:24:47;;;;;;;81.75;51.42;;;7.10;99.90;;;;;;5024662;28;20241;-92
2021/11/12 16:27:14;;;;;;;85.00;50.10;;;7.00;99.90;;;;;;5013954;28;20229;-94
2021/11/12 16:32:38;;;;;;;79.57;48.53;;;6.90;99.90;;;;;;5023699;28;20521;-96
2021/11/12 16:35:06;;;;;;;80.28;49.35;;;6.90;99.90;;;;;;5025787;28;20186;-92
2021/11/12 16:37:35;;;;;;;90.40;53.70;;;6.90;99.90;;;;;;5021971;28;20245;-93
2021/11/12 16:40:16;;;;;;;86.60;53.10;;;6.80;99.90;;;;;;5027274;28;20190;-93
2021/11/12 16:45:54;;;;;;;91.88;51.10;;;6.70;99.90;;;;;;5037905;28;20238;-94
2021/11/12 16:51:19;;;;;;;76.70;45.13;;;6.70;99.90;;;;;;5026880;28;20226;-94
2021/11/12 16:56:50;;;;;;;83.25;48.10;;;6.50;99.90;;;;;;5023312;28;20217;-94
2021/11/12 17:09:50;;;;;;;68.05;40.55;;;6.20;99.90;;;;;;5020157;28;20189;-95
2021/11/12 17:47:12;;;;;;;84.07;45.10;;;5.40;99.90;;;;;;5041472;28;20209;-94
2021/11/12 18:03:02;;;;;;;77.97;40.88;;;5.20;99.90;;;;;;5032034;28;20294;-92
2021/11/12 18:13:41;;;;;;;78.15;38.65;;;4.80;99.90;;;;;;5030052;28;20179;-92
2021/11/12 21:47:59;;;;;;;101.72;30.73;;;4.40;99.90;;;;;;5036210;28;20256;-92
2021/11/12 21:50:24;;;;;;;83.27;30.13;;;4.30;99.90;;;;;;5036219;28;20186;-93
2021/11/12 21:52:50;;;;;;;84.60;31.10;;;4.30;99.90;;;;;;5033521;28;20427;-93
2021/11/12 21:55:16;;;;;;;89.90;30.00;;;4.30;99.90;;;;;;5033741;28;20191;-93
2021/11/12 21:57:41;;;;;;;91.30;34.63;;;4.20;99.90;;;;;;5039391;28;20191;-93
2021/11/12 22:00:08;;;;;;;96.73;32.23;;;4.20;99.90;;;;;;5038665;28;20639;-92
2021/11/12 22:02:34;;;;;;;81.90;32.17;;;4.20;99.90;;;;;;5037160;28;20202;-94
2021/11/12 22:05:00;;;;;;;90.60;31.83;;;4.10;99.90;;;;;;5037571;28;20182;-92
2021/11/12 22:07:26;;;;;;;88.90;32.83;;;4.10;99.90;;;;;;5037288;28;20446;-93
2021/11/12 22:09:52;;;;;;;80.70;32.72;;;4.10;99.90;;;;;;5037675;28;20182;-92
2021/11/12 22:12:18;;;;;;;88.67;32.13;;;4.00;99.90;;;;;;5038802;28;20289;-92
2021/11/12 22:14:43;;;;;;;113.70;30.80;;;4.00;99.90;;;;;;5037946;28;20190;-92
2021/11/12 22:17:09;;;;;;;69.33;31.10;;;4.00;99.90;;;;;;5036983;28;20245;-92
2021/11/12 22:19:35;;;;;;;86.70;31.13;;;4.00;99.90;;;;;;5037428;28;20193;-93
2021/11/12 22:22:01;;;;;;;71.33;30.80;;;4.00;99.90;;;;;;5038508;28;20234;-92
2021/11/12 22:24:27;;;;;;;93.75;31.48;;;3.90;99.90;;;;;;5039745;28;20394;-92
2021/11/12 22:26:53;;;;;;;78.43;30.47;;;3.90;99.90;;;;;;5038340;28;20201;-92
2021/11/12 22:29:21;;;;;;;89.43;32.30;;;3.90;99.90;;;;;;5037091;28;20402;-92
2021/11/12 22:31:47;;;;;;;79.20;31.45;;;3.80;99.90;;;;;;5037154;28;20552;-91
2021/11/12 22:34:13;;;;;;;65.93;30.30;;;3.80;99.90;;;;;;5039667;28;20545;-92
2021/11/12 22:36:39;;;;;;;90.07;32.37;;;3.80;99.90;;;;;;5038459;28;20236;-92
2021/11/12 22:39:08;;;;;;;81.65;30.92;;;3.80;99.90;;;;;;5038185;28;20186;-92
2021/11/12 22:41:34;;;;;;;79.18;31.92;;;3.70;99.90;;;;;;5037732;28;20305;-92
2021/11/12 22:44:00;;;;;;;82.30;33.17;;;3.70;99.90;;;;;;5037963;28;20702;-91
2021/11/12 22:46:30;;;;;;;82.83;32.77;;;3.60;99.90;;;;;;5037072;28;20453;-93